Terminal Aerodrome Forecast
Issued by NWS

Home | Current Version | Previous Version | Graphics & Text | Print | Product List | Glossary On
Versions: 1 2 3 4 5 6 7 8 9 10 11 12 13 14 15
000
FTUS42 KMHX 230800 AAA
TAFPGV
TAF AMD
KPGV 230827Z 2308/2406 09003KT P6SM FEW100 SCT200
      TEMPO 2308/2310 1SM BR OVC005
     FM231000 03004KT P6SM BKN100
     FM231800 07006KT P6SM -RA SCT030 OVC045
     FM232200 07009KT 2SM RA BR OVC007
      AMD LTD TO CLD VIS AND WIND=

USA.gov is the U.S. government's official web portal to all federal, state and local government web resources and services.